Shenadoah, Ohio
Current Conditions -  °F | °C
As of 12:52 AM on Saturday 29 Nov 2014 (Local Time) from KMFD Reporting Station
Overcast Overcast  
Wind Chill: 19°   Ceiling: 8500
Heat Index: 29°   Visibility: 10mi
Dew Point: 20°   Wind: 12mph
Humidity: 69%   Direction: 160°SSE
Pressure: 30.07"   Gusts: NA
Location:  40.9484°N, 82.5121°W
Report Text: KMFD 290552Z 16010KT 10SM OVC085 M02/M07 A3007 RMK AO2 SLP199 T10171067 11011 21033 58009
Loading
Personal Weather Stations






























Interactive Weather Map New forecast layout! Learn more

10-Day Weather Forecast

Advertisements
Track Severe Weather on mobile